createdAt,value
2018-07-13T00:00:37.809Z,0.00
2018-07-13T00:01:37.762Z,0.00
2018-07-13T00:02:37.730Z,0.00
2018-07-13T00:03:37.695Z,0.00
2018-07-13T00:04:37.652Z,0.00
2018-07-13T00:05:37.611Z,0.00
2018-07-13T00:06:37.612Z,0.00
2018-07-13T00:07:37.575Z,0.00
2018-07-13T00:08:37.498Z,0.00
2018-07-13T00:09:37.473Z,0.00
2018-07-13T00:10:37.468Z,0.00
2018-07-13T00:11:37.390Z,0.00
2018-07-13T00:12:37.371Z,0.00
2018-07-13T00:13:37.339Z,0.00
2018-07-13T00:14:37.321Z,0.00
2018-07-13T00:15:37.282Z,0.00
2018-07-13T00:16:37.218Z,0.00
2018-07-13T00:17:37.178Z,0.00
2018-07-13T00:18:37.143Z,0.00
2018-07-13T00:19:37.117Z,0.00
2018-07-13T00:20:37.070Z,0.00
2018-07-13T00:21:37.046Z,0.00
2018-07-13T00:22:37.001Z,0.00
2018-07-13T00:23:36.967Z,0.00
2018-07-13T00:24:36.944Z,0.00
2018-07-13T00:25:36.907Z,0.00
2018-07-13T00:26:36.856Z,0.00
2018-07-13T00:27:36.820Z,0.00
2018-07-13T00:28:36.809Z,0.00
2018-07-13T00:29:36.767Z,0.00
2018-07-13T00:30:36.715Z,0.00
2018-07-13T00:31:36.676Z,0.00
2018-07-13T00:32:36.660Z,0.00
2018-07-13T00:33:36.620Z,0.00
2018-07-13T00:34:36.580Z,0.00
2018-07-13T00:35:36.539Z,0.00
2018-07-13T00:36:36.503Z,0.00
2018-07-13T00:37:36.475Z,0.00
2018-07-13T00:38:36.423Z,0.00
2018-07-13T00:39:36.414Z,0.00
2018-07-13T00:40:36.372Z,0.00
2018-07-13T00:41:36.328Z,0.00
2018-07-13T00:42:36.279Z,0.00
2018-07-13T00:43:36.242Z,0.00
2018-07-13T00:44:36.208Z,0.00
2018-07-13T00:45:36.172Z,0.00
2018-07-13T00:46:36.153Z,0.00
2018-07-13T00:47:36.095Z,0.00
2018-07-13T00:48:36.063Z,0.00
2018-07-13T00:49:36.045Z,0.00
2018-07-13T00:50:35.996Z,0.00
2018-07-13T00:51:35.951Z,0.00
2018-07-13T00:52:35.918Z,0.00
2018-07-13T00:53:35.899Z,0.00
2018-07-13T00:54:35.845Z,0.00
2018-07-13T00:55:35.833Z,0.00
2018-07-13T00:56:35.773Z,0.00
2018-07-13T00:57:35.742Z,0.00
2018-07-13T00:58:35.705Z,0.00
2018-07-13T00:59:35.680Z,0.00
2018-07-13T01:00:35.644Z,0.00
2018-07-13T01:01:35.608Z,0.00
2018-07-13T01:02:35.576Z,0.00
2018-07-13T01:03:35.528Z,0.00
2018-07-13T01:04:35.482Z,0.00
2018-07-13T01:05:35.475Z,0.00
2018-07-13T01:06:35.432Z,0.00
2018-07-13T01:07:35.394Z,0.00
2018-07-13T01:08:35.353Z,0.00
2018-07-13T01:09:35.312Z,0.00
2018-07-13T01:10:35.317Z,0.00
2018-07-13T01:11:35.240Z,0.00
2018-07-13T01:12:35.214Z,0.00
2018-07-13T01:13:35.165Z,0.00
2018-07-13T01:14:35.124Z,0.00
2018-07-13T01:15:35.099Z,0.00
2018-07-13T01:16:35.058Z,0.00
2018-07-13T01:17:35.012Z,0.00
2018-07-13T01:18:34.990Z,0.00
2018-07-13T01:19:34.952Z,0.00
2018-07-13T01:20:34.921Z,0.00
2018-07-13T01:21:34.882Z,0.00
2018-07-13T01:22:34.839Z,0.00
2018-07-13T01:23:34.798Z,0.00
2018-07-13T01:24:34.763Z,0.00
2018-07-13T01:25:34.737Z,0.00
2018-07-13T01:26:34.687Z,0.00
2018-07-13T01:27:34.669Z,0.00
2018-07-13T01:28:34.615Z,0.00
2018-07-13T01:29:34.581Z,0.00
2018-07-13T01:30:34.546Z,0.00
2018-07-13T01:31:34.521Z,0.00
2018-07-13T01:32:34.477Z,0.00
2018-07-13T01:33:34.449Z,0.00
2018-07-13T01:34:34.406Z,0.00
2018-07-13T01:35:34.382Z,0.00
2018-07-13T01:36:34.390Z,0.00
2018-07-13T01:37:34.791Z,0.00
2018-07-13T01:38:34.285Z,0.00
2018-07-13T01:39:34.238Z,0.00
2018-07-13T01:40:34.181Z,0.00
2018-07-13T01:41:34.150Z,0.00
2018-07-13T01:42:34.113Z,0.00
2018-07-13T01:43:34.077Z,0.00
2018-07-13T01:44:34.040Z,0.00
2018-07-13T01:45:33.992Z,0.00
2018-07-13T01:46:33.986Z,0.00
2018-07-13T01:47:33.921Z,0.00
2018-07-13T01:48:33.908Z,0.00
2018-07-13T01:49:33.868Z,0.00
2018-07-13T01:50:33.848Z,0.00
2018-07-13T01:51:33.790Z,0.00
2018-07-13T01:52:33.758Z,0.00
2018-07-13T01:53:33.716Z,0.00
2018-07-13T01:54:33.678Z,0.00
2018-07-13T01:55:33.705Z,0.00
2018-07-13T01:56:33.607Z,0.00
2018-07-13T01:57:33.578Z,0.00
2018-07-13T01:58:33.545Z,0.00
2018-07-13T01:59:33.483Z,0.00
2018-07-13T02:00:33.452Z,0.00
2018-07-13T02:01:33.403Z,0.00
2018-07-13T02:02:33.391Z,0.00
2018-07-13T02:03:33.366Z,0.00
2018-07-13T02:04:33.306Z,0.00
2018-07-13T02:05:33.281Z,0.00
2018-07-13T02:06:33.239Z,0.00
2018-07-13T02:07:33.199Z,0.00
2018-07-13T02:08:33.173Z,0.00
2018-07-13T02:09:33.132Z,0.00
2018-07-13T02:10:33.099Z,0.00
2018-07-13T02:11:33.036Z,0.00
2018-07-13T02:12:33.013Z,0.00
2018-07-13T02:13:32.977Z,0.00
2018-07-13T02:14:32.940Z,0.00
2018-07-13T02:15:32.903Z,0.00
2018-07-13T02:16:32.891Z,0.00
2018-07-13T02:17:32.830Z,0.00
2018-07-13T02:18:32.782Z,0.00
2018-07-13T02:19:32.786Z,0.00
2018-07-13T02:20:32.723Z,0.00
2018-07-13T02:21:32.691Z,0.00
2018-07-13T02:22:32.642Z,0.00
2018-07-13T02:23:32.609Z,0.00
2018-07-13T02:24:32.593Z,0.00
2018-07-13T02:25:32.536Z,0.00
2018-07-13T02:26:33.589Z,0.00
2018-07-13T02:27:32.481Z,0.00
2018-07-13T02:28:32.427Z,0.00
2018-07-13T02:29:32.383Z,0.00
2018-07-13T02:30:32.373Z,0.00
2018-07-13T02:31:32.311Z,0.00
2018-07-13T02:32:32.269Z,0.00
2018-07-13T02:33:32.234Z,0.00
2018-07-13T02:34:32.247Z,0.00
2018-07-13T02:35:32.154Z,0.00
2018-07-13T02:36:32.129Z,0.00
2018-07-13T02:37:32.087Z,0.00
2018-07-13T02:38:32.067Z,0.00
2018-07-13T02:39:32.018Z,0.00
2018-07-13T02:40:31.978Z,0.00
2018-07-13T02:41:31.938Z,0.00
2018-07-13T02:42:31.913Z,0.00
2018-07-13T02:43:31.884Z,0.00
2018-07-13T02:44:31.836Z,0.00
2018-07-13T02:45:31.808Z,0.00
2018-07-13T02:46:31.781Z,0.00
2018-07-13T02:47:31.728Z,0.00
2018-07-13T02:48:31.674Z,0.00
2018-07-13T02:49:31.658Z,0.00
2018-07-13T02:50:31.612Z,0.00
2018-07-13T02:51:31.568Z,0.00
2018-07-13T02:52:31.563Z,0.00
2018-07-13T02:53:31.495Z,0.00
2018-07-13T02:54:31.452Z,0.00
2018-07-13T02:55:31.430Z,0.00
2018-07-13T02:56:31.405Z,0.00
2018-07-13T02:57:31.356Z,0.00
2018-07-13T02:58:31.302Z,5.63
2018-07-13T02:59:31.278Z,5.63
2018-07-13T03:00:31.236Z,5.63
2018-07-13T03:01:31.225Z,5.63
2018-07-13T03:02:31.173Z,5.63
2018-07-13T03:03:31.131Z,5.63
2018-07-13T03:04:31.098Z,11.25
2018-07-13T03:05:31.046Z,11.25
2018-07-13T03:06:31.034Z,11.25
2018-07-13T03:07:30.967Z,11.25
2018-07-13T03:08:30.932Z,11.25
2018-07-13T03:09:30.918Z,16.88
2018-07-13T03:10:30.859Z,16.88
2018-07-13T03:11:30.829Z,16.88
2018-07-13T03:12:30.791Z,22.50
2018-07-13T03:13:30.777Z,22.50
2018-07-13T03:14:30.717Z,22.50
2018-07-13T03:15:30.671Z,28.13
2018-07-13T03:16:30.637Z,28.13
2018-07-13T03:17:30.596Z,33.75
2018-07-13T03:18:30.570Z,33.75
2018-07-13T03:19:30.551Z,39.38
2018-07-13T03:20:30.495Z,39.38
2018-07-13T03:21:30.474Z,45.00
2018-07-13T03:22:30.408Z,45.00
2018-07-13T03:23:30.383Z,50.63
2018-07-13T03:24:30.337Z,50.63
2018-07-13T03:25:30.315Z,56.25
2018-07-13T03:26:30.292Z,56.25
2018-07-13T03:27:30.248Z,61.88
2018-07-13T03:28:30.185Z,67.50
2018-07-13T03:29:30.152Z,67.50
2018-07-13T03:30:30.203Z,73.13
2018-07-13T03:31:30.070Z,78.75
2018-07-13T03:32:30.043Z,84.38
2018-07-13T03:33:30.823Z,84.38
2018-07-13T03:34:29.961Z,90.00
2018-07-13T03:35:29.931Z,95.63
2018-07-13T03:36:29.905Z,101.25
2018-07-13T03:37:29.855Z,101.25
2018-07-13T03:38:29.833Z,106.88
2018-07-13T03:39:29.768Z,112.50
2018-07-13T03:40:29.739Z,118.13
2018-07-13T03:41:29.707Z,129.38
2018-07-13T03:42:29.658Z,129.38
2018-07-13T03:43:29.630Z,135.00
2018-07-13T03:44:29.591Z,140.63
2018-07-13T03:45:29.551Z,146.25
2018-07-13T03:46:29.623Z,151.88
2018-07-13T03:47:29.504Z,157.50
2018-07-13T03:48:29.504Z,163.13
2018-07-13T03:49:29.400Z,174.38
2018-07-13T03:50:29.359Z,168.75
2018-07-13T03:51:29.331Z,174.38
2018-07-13T03:52:29.290Z,174.38
2018-07-13T03:53:29.261Z,180.00
2018-07-13T03:54:29.252Z,180.00
2018-07-13T03:55:29.190Z,185.63
2018-07-13T03:56:29.156Z,185.63
2018-07-13T03:57:29.152Z,191.25
2018-07-13T03:58:29.077Z,196.88
2018-07-13T03:59:29.023Z,202.50
2018-07-13T04:00:28.983Z,202.50
2018-07-13T04:01:28.948Z,208.13
2018-07-13T04:02:28.911Z,213.75
2018-07-13T04:03:28.878Z,219.38
2018-07-13T04:04:28.886Z,219.38
2018-07-13T04:05:28.799Z,219.38
2018-07-13T04:06:28.894Z,230.63
2018-07-13T04:07:28.728Z,236.25
2018-07-13T04:08:28.763Z,247.50
2018-07-13T04:09:28.657Z,258.75
2018-07-13T04:10:28.629Z,275.63
2018-07-13T04:11:28.587Z,309.38
2018-07-13T04:12:28.580Z,337.50
2018-07-13T04:13:28.523Z,348.75
2018-07-13T04:14:28.482Z,360.00
2018-07-13T04:15:28.463Z,365.63
2018-07-13T04:16:28.406Z,371.25
2018-07-13T04:17:28.355Z,382.50
2018-07-13T04:18:28.328Z,388.13
2018-07-13T04:19:28.319Z,393.75
2018-07-13T04:20:28.316Z,399.38
2018-07-13T04:21:28.227Z,410.63
2018-07-13T04:22:28.247Z,421.88
2018-07-13T04:23:28.159Z,433.13
2018-07-13T04:24:28.123Z,438.75
2018-07-13T04:25:28.084Z,444.38
2018-07-13T04:26:28.058Z,450.00
2018-07-13T04:27:28.042Z,455.63
2018-07-13T04:28:27.988Z,461.25
2018-07-13T04:29:27.926Z,472.50
2018-07-13T04:30:27.892Z,483.75
2018-07-13T04:31:27.864Z,489.38
2018-07-13T04:32:27.819Z,500.63
2018-07-13T04:33:27.797Z,511.88
2018-07-13T04:34:27.751Z,523.13
2018-07-13T04:35:27.712Z,540.00
2018-07-13T04:36:27.722Z,562.50
2018-07-13T04:37:27.673Z,579.38
2018-07-13T04:38:27.613Z,590.63
2018-07-13T04:39:27.572Z,596.25
2018-07-13T04:40:27.551Z,630.00
2018-07-13T04:41:27.519Z,652.50
2018-07-13T04:42:27.495Z,663.75
2018-07-13T04:43:27.445Z,770.63
2018-07-13T04:44:27.418Z,810.00
2018-07-13T04:45:27.404Z,776.25
2018-07-13T04:46:27.333Z,748.13
2018-07-13T04:47:27.321Z,770.63
2018-07-13T04:48:27.328Z,770.63
2018-07-13T04:49:27.243Z,765.00
2018-07-13T04:50:27.248Z,770.63
2018-07-13T04:51:27.174Z,810.00
2018-07-13T04:52:27.229Z,838.13
2018-07-13T04:53:27.110Z,855.00
2018-07-13T04:54:27.085Z,888.75
2018-07-13T04:55:27.074Z,866.25
2018-07-13T04:56:27.054Z,843.75
2018-07-13T04:57:26.985Z,883.13
2018-07-13T04:58:26.955Z,866.25
2018-07-13T04:59:26.954Z,855.00
2018-07-13T05:00:26.935Z,866.25
2018-07-13T05:01:26.861Z,916.88
2018-07-13T05:02:26.825Z,978.75
2018-07-13T05:03:26.810Z,961.88
2018-07-13T05:04:26.780Z,928.13
2018-07-13T05:05:26.728Z,928.13
2018-07-13T05:06:26.705Z,950.63
2018-07-13T05:07:26.655Z,956.25
2018-07-13T05:08:27.357Z,945.00
2018-07-13T05:09:26.612Z,939.38
2018-07-13T05:10:26.582Z,939.38
2018-07-13T05:11:26.560Z,928.13
2018-07-13T05:12:26.517Z,933.75
2018-07-13T05:13:26.490Z,956.25
2018-07-13T05:14:26.467Z,984.38
2018-07-13T05:15:26.487Z,1108.13
2018-07-13T05:16:26.393Z,1282.50
2018-07-13T05:17:26.471Z,1389.38
2018-07-13T05:18:26.342Z,1473.75
2018-07-13T05:19:26.317Z,1490.63
2018-07-13T05:20:26.288Z,1462.50
2018-07-13T05:21:26.261Z,1507.50
2018-07-13T05:22:26.230Z,1586.25
2018-07-13T05:23:26.189Z,1518.75
2018-07-13T05:24:26.161Z,1440.00
2018-07-13T05:25:26.137Z,1423.13
2018-07-13T05:26:26.147Z,1417.50
2018-07-13T05:27:26.076Z,945.00
2018-07-13T05:28:26.057Z,849.38
2018-07-13T05:29:26.047Z,759.38
2018-07-13T05:30:25.999Z,855.00
2018-07-13T05:31:25.977Z,933.75
2018-07-13T05:32:25.950Z,860.63
2018-07-13T05:33:25.920Z,860.63
2018-07-13T05:34:25.934Z,798.75
2018-07-13T05:35:25.855Z,815.63
2018-07-13T05:36:25.855Z,810.00
2018-07-13T05:37:25.829Z,826.88
2018-07-13T05:38:25.861Z,821.25
2018-07-13T05:39:25.755Z,838.13
2018-07-13T05:40:25.751Z,838.13
2018-07-13T05:41:25.695Z,838.13
2018-07-13T05:42:25.694Z,832.50
2018-07-13T05:43:25.643Z,838.13
2018-07-13T05:44:25.688Z,838.13
2018-07-13T05:45:25.624Z,832.50
2018-07-13T05:46:25.565Z,826.88
2018-07-13T05:47:25.531Z,810.00
2018-07-13T05:48:25.508Z,804.38
2018-07-13T05:49:25.474Z,798.75
2018-07-13T05:50:25.450Z,804.38
2018-07-13T05:51:25.420Z,810.00
2018-07-13T05:52:25.389Z,826.88
2018-07-13T05:53:25.353Z,832.50
2018-07-13T05:54:25.311Z,838.13
2018-07-13T05:55:25.296Z,843.75
2018-07-13T05:56:25.275Z,855.00
2018-07-13T05:57:25.236Z,866.25
2018-07-13T05:58:25.197Z,877.50
2018-07-13T05:59:25.171Z,894.38
2018-07-13T06:00:25.183Z,900.00
2018-07-13T06:01:25.120Z,911.25
2018-07-13T06:02:25.130Z,916.88
2018-07-13T06:03:25.088Z,928.13
2018-07-13T06:04:25.048Z,945.00
2018-07-13T06:05:25.000Z,961.88
2018-07-13T06:06:25.043Z,978.75
2018-07-13T06:07:24.932Z,1001.25
2018-07-13T06:08:24.908Z,1001.25
2018-07-13T06:09:24.902Z,1012.50
2018-07-13T06:10:24.847Z,1023.75
2018-07-13T06:11:24.811Z,1029.38
2018-07-13T06:12:24.803Z,1035.00
2018-07-13T06:13:24.756Z,1051.88
2018-07-13T06:14:24.736Z,1040.63
2018-07-13T06:15:24.713Z,1035.00
2018-07-13T06:16:24.668Z,1029.38
2018-07-13T06:17:24.646Z,1029.38
2018-07-13T06:18:24.609Z,1029.38
2018-07-13T06:19:24.582Z,1018.13
2018-07-13T06:20:24.554Z,1023.75
2018-07-13T06:21:24.523Z,1023.75
2018-07-13T06:22:24.495Z,1029.38
2018-07-13T06:23:24.463Z,1035.00
2018-07-13T06:24:24.452Z,1040.63
2018-07-13T06:25:24.428Z,1040.63
2018-07-13T06:26:24.360Z,1051.88
2018-07-13T06:27:24.346Z,1051.88
2018-07-13T06:28:24.325Z,1035.00
2018-07-13T06:29:24.272Z,1035.00
2018-07-13T06:30:24.258Z,1040.63
2018-07-13T06:31:24.297Z,1063.13
2018-07-13T06:32:24.187Z,1051.88
2018-07-13T06:33:24.174Z,1158.75
2018-07-13T06:34:24.127Z,1018.13
2018-07-13T06:35:24.114Z,1012.50
2018-07-13T06:36:24.065Z,1023.75
2018-07-13T06:37:24.048Z,1029.38
2018-07-13T06:38:24.018Z,1051.88
2018-07-13T06:39:23.981Z,1074.38
2018-07-13T06:40:23.978Z,1125.00
2018-07-13T06:41:23.947Z,1198.13
2018-07-13T06:42:23.934Z,1276.88
2018-07-13T06:43:23.858Z,1338.75
2018-07-13T06:44:23.826Z,1395.00
2018-07-13T06:45:23.820Z,1423.13
2018-07-13T06:46:23.788Z,1423.13
2018-07-13T06:47:23.751Z,1406.25
2018-07-13T06:48:23.721Z,1406.25
2018-07-13T06:49:23.695Z,1417.50
2018-07-13T06:50:23.742Z,1428.75
2018-07-13T06:51:23.650Z,1451.25
2018-07-13T06:52:23.603Z,1468.13
2018-07-13T06:53:23.579Z,1490.63
2018-07-13T06:54:23.559Z,1496.25
2018-07-13T06:55:23.505Z,1507.50
2018-07-13T06:56:23.481Z,1575.00
2018-07-13T06:57:23.471Z,1575.00
2018-07-13T06:58:23.421Z,1845.00
2018-07-13T06:59:23.389Z,1940.63
2018-07-13T07:00:23.367Z,2390.63
2018-07-13T07:01:23.365Z,2480.63
2018-07-13T07:02:23.322Z,2295.00
2018-07-13T07:03:23.289Z,2610.00
2018-07-13T07:04:23.283Z,2413.13
2018-07-13T07:05:23.233Z,2778.75
2018-07-13T07:06:23.198Z,3065.63
2018-07-13T07:07:23.173Z,3155.63
2018-07-13T07:08:23.154Z,2818.13
2018-07-13T07:09:23.125Z,2311.88
2018-07-13T07:10:23.108Z,2998.13
2018-07-13T07:11:23.078Z,1985.63
2018-07-13T07:12:23.041Z,2981.25
2018-07-13T07:13:23.014Z,2131.88
2018-07-13T07:14:22.995Z,2261.25
2018-07-13T07:15:22.971Z,2773.13
2018-07-13T07:16:22.946Z,2345.63
2018-07-13T07:17:22.921Z,2913.75
2018-07-13T07:18:22.893Z,3003.75
2018-07-13T07:19:22.865Z,2705.63
2018-07-13T07:20:22.836Z,2587.50
2018-07-13T07:21:22.821Z,2767.50
2018-07-13T07:22:22.808Z,4320.00
2018-07-13T07:23:22.831Z,3538.13
2018-07-13T07:24:22.750Z,4185.00
2018-07-13T07:25:22.712Z,3774.38
2018-07-13T07:26:22.695Z,3487.50
2018-07-13T07:27:22.676Z,3431.25
2018-07-13T07:28:22.652Z,2902.50
2018-07-13T07:29:22.633Z,2700.00
2018-07-13T07:30:22.604Z,3195.00
2018-07-13T07:31:22.584Z,3245.63
2018-07-13T07:32:22.615Z,2559.38
2018-07-13T07:33:22.549Z,4263.75
2018-07-13T07:34:22.525Z,4145.63
2018-07-13T07:35:22.504Z,3442.50
2018-07-13T07:36:22.463Z,1856.25
2018-07-13T07:37:22.438Z,2497.50
2018-07-13T07:38:22.442Z,1861.88
2018-07-13T07:39:22.408Z,1788.75
2018-07-13T07:40:22.391Z,1951.88
2018-07-13T07:41:22.356Z,1912.50
2018-07-13T07:42:22.334Z,1676.25
2018-07-13T07:43:22.321Z,2075.63
2018-07-13T07:44:22.301Z,2013.75
2018-07-13T07:45:22.277Z,1580.63
2018-07-13T07:46:22.263Z,1710.00
2018-07-13T07:47:22.235Z,1968.75
2018-07-13T07:48:22.215Z,1743.75
2018-07-13T07:49:22.195Z,3161.25
2018-07-13T07:50:22.190Z,3330.00
2018-07-13T07:51:22.141Z,1642.50
2018-07-13T07:52:22.136Z,1800.00
2018-07-13T07:53:22.131Z,1845.00
2018-07-13T07:54:22.080Z,2480.63
2018-07-13T07:55:22.138Z,3673.13
2018-07-13T07:56:22.204Z,3813.75
2018-07-13T07:57:22.012Z,3909.38
2018-07-13T07:58:21.981Z,3819.38
2018-07-13T07:59:22.003Z,3543.75
2018-07-13T08:00:22.018Z,3639.38
2018-07-13T08:01:21.970Z,3240.00
2018-07-13T08:02:22.010Z,3414.38
2018-07-13T08:03:21.873Z,3481.88
2018-07-13T08:04:21.855Z,3616.88
2018-07-13T08:05:21.829Z,3453.75
2018-07-13T08:06:21.917Z,3757.50
2018-07-13T08:07:21.865Z,3976.88
2018-07-13T08:08:21.777Z,3757.50
2018-07-13T08:09:21.748Z,4156.88
2018-07-13T08:10:21.753Z,3920.63
2018-07-13T08:11:21.736Z,3352.50
2018-07-13T08:12:21.678Z,3903.75
2018-07-13T08:13:21.679Z,3971.25
2018-07-13T08:14:21.651Z,3459.38
2018-07-13T08:15:21.628Z,3616.88
2018-07-13T08:16:21.618Z,3735.00
2018-07-13T08:17:21.591Z,3954.38
2018-07-13T08:18:21.564Z,3780.00
2018-07-13T08:19:21.545Z,4387.50
2018-07-13T08:20:21.520Z,4263.75
2018-07-13T08:21:21.503Z,3808.13
2018-07-13T08:22:21.492Z,4173.75
2018-07-13T08:23:21.463Z,4128.75
2018-07-13T08:24:21.452Z,3622.50
2018-07-13T08:25:21.422Z,3791.25
2018-07-13T08:26:21.403Z,3886.88
2018-07-13T08:27:21.383Z,3656.25
2018-07-13T08:28:21.349Z,3408.75
2018-07-13T08:29:21.337Z,3763.13
2018-07-13T08:30:21.330Z,4584.38
2018-07-13T08:31:21.290Z,4691.25
2018-07-13T08:32:21.285Z,4860.00
2018-07-13T08:33:21.253Z,4550.63
2018-07-13T08:34:21.240Z,3870.00
2018-07-13T08:35:21.206Z,3864.38
2018-07-13T08:36:21.206Z,3780.00
2018-07-13T08:37:21.183Z,3723.75
2018-07-13T08:38:21.171Z,3931.88
2018-07-13T08:39:21.130Z,4151.25
2018-07-13T08:40:21.125Z,4410.00
2018-07-13T08:41:21.095Z,4854.38
2018-07-13T08:42:21.096Z,5090.63
2018-07-13T08:43:21.082Z,4770.00
2018-07-13T08:44:21.053Z,4280.63
2018-07-13T08:45:21.041Z,4365.00
2018-07-13T08:46:20.999Z,4415.63
2018-07-13T08:47:20.991Z,5034.38
2018-07-13T08:48:20.953Z,4961.25
2018-07-13T08:49:20.966Z,4601.25
2018-07-13T08:50:20.952Z,4185.00
2018-07-13T08:51:20.901Z,3886.88
2018-07-13T08:52:20.882Z,4494.38
2018-07-13T08:53:20.855Z,5017.50
2018-07-13T08:54:20.842Z,5163.75
2018-07-13T08:55:20.814Z,4826.25
2018-07-13T08:56:20.829Z,4190.63
2018-07-13T08:57:20.792Z,4432.50
2018-07-13T08:58:20.765Z,4798.13
2018-07-13T08:59:20.742Z,4713.75
2018-07-13T09:00:20.722Z,4404.38
2018-07-13T09:01:20.693Z,3847.50
2018-07-13T09:02:20.694Z,4365.00
2018-07-13T09:03:20.670Z,4584.38
2018-07-13T09:04:21.638Z,4201.88
2018-07-13T09:05:20.634Z,4218.75
2018-07-13T09:06:20.636Z,4353.75
2018-07-13T09:07:20.579Z,4246.88
2018-07-13T09:08:20.626Z,4393.13
2018-07-13T09:09:20.557Z,4511.25
2018-07-13T09:10:20.519Z,4123.13
2018-07-13T09:11:20.512Z,4353.75
2018-07-13T09:12:20.499Z,5090.63
2018-07-13T09:13:20.462Z,4966.88
2018-07-13T09:14:20.445Z,3988.13
2018-07-13T09:15:20.419Z,3864.38
2018-07-13T09:16:20.449Z,4280.63
2018-07-13T09:17:20.387Z,4815.00
2018-07-13T09:18:20.468Z,4421.25
2018-07-13T09:19:20.345Z,3841.88
2018-07-13T09:20:20.346Z,4522.50
2018-07-13T09:21:20.308Z,5124.38
2018-07-13T09:22:20.295Z,5664.38
2018-07-13T09:23:20.269Z,5574.38
2018-07-13T09:24:20.254Z,5006.25
2018-07-13T09:25:20.236Z,5023.13
2018-07-13T09:26:20.229Z,5670.00
2018-07-13T09:27:20.181Z,5996.25
2018-07-13T09:28:20.175Z,5079.38
2018-07-13T09:29:20.150Z,4218.75
2018-07-13T09:30:20.167Z,3729.38
2018-07-13T09:31:20.210Z,3324.38
2018-07-13T09:32:20.096Z,3498.75
2018-07-13T09:33:20.084Z,3746.25
2018-07-13T09:34:20.096Z,3825.00
2018-07-13T09:35:20.035Z,4196.25
2018-07-13T09:36:20.055Z,4955.63
2018-07-13T09:37:20.002Z,4770.00
2018-07-13T09:38:20.037Z,5107.50
2018-07-13T09:39:19.971Z,5411.25
2018-07-13T09:40:19.984Z,4646.25
2018-07-13T09:41:19.958Z,4336.88
2018-07-13T09:42:20.001Z,4983.75
2018-07-13T09:43:19.913Z,5208.75
2018-07-13T09:44:19.857Z,5062.50
2018-07-13T09:45:19.854Z,2463.75
2018-07-13T09:46:19.844Z,5422.50
2018-07-13T09:47:19.803Z,1794.38
2018-07-13T09:48:19.810Z,1918.13
2018-07-13T09:49:19.769Z,5310.00
2018-07-13T09:50:19.744Z,5079.38
2018-07-13T09:51:19.733Z,5062.50
2018-07-13T09:52:19.726Z,5028.75
2018-07-13T09:53:19.681Z,5197.50
2018-07-13T09:54:19.667Z,5186.25
2018-07-13T09:55:19.655Z,5169.38
2018-07-13T09:56:19.632Z,5270.63
2018-07-13T09:57:19.617Z,2553.75
2018-07-13T09:58:19.601Z,1648.13
2018-07-13T09:59:19.576Z,4038.75
2018-07-13T10:00:19.556Z,4938.75
2018-07-13T10:01:19.529Z,4961.25
2018-07-13T10:02:19.527Z,4106.25
2018-07-13T10:03:19.495Z,5214.38
2018-07-13T10:04:19.480Z,5715.00
2018-07-13T10:05:19.461Z,5394.38
2018-07-13T10:06:19.463Z,5197.50
2018-07-13T10:07:19.417Z,5715.00
2018-07-13T10:08:19.411Z,5821.88
2018-07-13T10:09:19.378Z,5394.38
2018-07-13T10:10:19.351Z,5208.75
2018-07-13T10:11:19.342Z,5197.50
2018-07-13T10:12:19.318Z,4410.00
2018-07-13T10:13:19.359Z,4100.63
2018-07-13T10:14:19.283Z,2958.75
2018-07-13T10:15:19.251Z,5298.75
2018-07-13T10:16:19.231Z,5506.88
2018-07-13T10:17:19.229Z,4578.75
2018-07-13T10:18:19.190Z,4455.00
2018-07-13T10:19:19.182Z,4955.63
2018-07-13T10:20:19.157Z,5371.88
2018-07-13T10:21:19.143Z,4831.88
2018-07-13T10:22:19.115Z,4820.63
2018-07-13T10:23:19.098Z,4798.13
2018-07-13T10:24:19.121Z,5191.88
2018-07-13T10:25:19.052Z,5523.75
2018-07-13T10:26:19.037Z,4708.13
2018-07-13T10:27:19.020Z,4421.25
2018-07-13T10:28:19.000Z,5321.25
2018-07-13T10:29:19.055Z,5023.13
2018-07-13T10:30:18.962Z,4893.75
2018-07-13T10:31:18.945Z,4966.88
2018-07-13T10:32:18.925Z,4927.50
2018-07-13T10:33:18.888Z,4944.38
2018-07-13T10:34:18.882Z,4865.63
2018-07-13T10:35:18.891Z,4848.75
2018-07-13T10:36:18.836Z,5450.63
2018-07-13T10:37:18.818Z,4927.50
2018-07-13T10:38:18.793Z,4117.50
2018-07-13T10:39:18.785Z,4725.00
2018-07-13T10:40:18.756Z,5090.63
2018-07-13T10:41:18.738Z,5557.50
2018-07-13T10:42:18.735Z,5062.50
2018-07-13T10:43:18.696Z,5675.63
2018-07-13T10:44:18.685Z,5647.50
2018-07-13T10:45:18.673Z,5641.88
2018-07-13T10:46:18.625Z,5236.88
2018-07-13T10:47:18.606Z,5079.38
2018-07-13T10:48:18.593Z,5158.13
2018-07-13T10:49:18.574Z,5130.00
2018-07-13T10:50:18.563Z,5270.63
2018-07-13T10:51:18.534Z,5304.38
2018-07-13T10:52:18.511Z,5011.88
2018-07-13T10:53:18.493Z,5085.00
2018-07-13T10:54:18.492Z,5540.63
2018-07-13T10:55:18.473Z,5265.00
2018-07-13T10:56:18.432Z,4921.88
2018-07-13T10:57:18.408Z,5692.50
2018-07-13T10:58:18.387Z,5917.50
2018-07-13T10:59:18.376Z,5973.75
2018-07-13T11:00:18.344Z,5765.63
2018-07-13T11:01:18.346Z,4224.38
2018-07-13T11:02:18.319Z,4432.50
2018-07-13T11:03:18.286Z,4702.50
2018-07-13T11:04:18.268Z,3076.88
2018-07-13T11:05:18.303Z,4545.00
2018-07-13T11:06:18.227Z,5636.25
2018-07-13T11:07:18.209Z,4809.38
2018-07-13T11:08:18.188Z,3144.38
2018-07-13T11:09:18.156Z,3836.25
2018-07-13T11:10:18.151Z,5855.63
2018-07-13T11:11:18.119Z,5332.50
2018-07-13T11:12:18.142Z,3931.88
2018-07-13T11:13:18.089Z,4680.00
2018-07-13T11:14:18.080Z,4843.13
2018-07-13T11:15:18.048Z,4741.88
2018-07-13T11:16:18.040Z,5276.25
2018-07-13T11:17:18.004Z,5338.13
2018-07-13T11:18:17.974Z,5625.00
2018-07-13T11:19:17.958Z,5535.00
2018-07-13T11:20:17.953Z,4567.50
2018-07-13T11:21:17.922Z,5405.63
2018-07-13T11:22:17.905Z,5844.38
2018-07-13T11:23:17.871Z,4905.00
2018-07-13T11:24:17.926Z,4950.00
2018-07-13T11:25:17.840Z,5118.75
2018-07-13T11:26:17.815Z,5439.38
2018-07-13T11:27:17.808Z,6170.63
2018-07-13T11:28:17.776Z,5866.88
2018-07-13T11:29:17.755Z,5383.13
2018-07-13T11:30:17.728Z,5546.25
2018-07-13T11:31:17.710Z,5158.13
2018-07-13T11:32:17.687Z,4708.13
2018-07-13T11:33:17.677Z,1777.50
2018-07-13T11:34:17.645Z,5855.63
2018-07-13T11:35:17.624Z,4663.13
2018-07-13T11:36:17.609Z,1991.25
2018-07-13T11:37:17.644Z,2289.38
2018-07-13T11:38:17.568Z,5073.75
2018-07-13T11:39:17.548Z,4348.13
2018-07-13T11:40:17.533Z,5478.75
2018-07-13T11:41:17.503Z,5861.25
2018-07-13T11:42:17.489Z,5135.63
2018-07-13T11:43:17.474Z,1518.75
2018-07-13T11:44:17.519Z,1445.63
2018-07-13T11:45:17.438Z,2514.38
2018-07-13T11:46:17.422Z,5495.63
2018-07-13T11:47:17.397Z,5563.13
2018-07-13T11:48:17.361Z,5011.88
2018-07-13T11:49:17.339Z,5287.50
2018-07-13T11:50:17.312Z,2311.88
2018-07-13T11:51:17.319Z,5827.50
2018-07-13T11:52:17.278Z,5810.63
2018-07-13T11:53:17.253Z,2120.63
2018-07-13T11:54:17.236Z,4747.50
2018-07-13T11:55:17.224Z,2790.00
2018-07-13T11:56:17.196Z,5242.50
2018-07-13T11:57:17.185Z,4893.75
2018-07-13T11:58:17.151Z,5405.63
2018-07-13T11:59:17.128Z,5467.50
2018-07-13T12:00:17.121Z,5535.00
2018-07-13T12:01:17.109Z,5051.25
2018-07-13T12:02:17.077Z,5034.38
2018-07-13T12:03:17.072Z,5265.00
2018-07-13T12:04:17.038Z,5608.13
2018-07-13T12:05:17.012Z,6103.13
2018-07-13T12:06:17.008Z,6232.50
2018-07-13T12:07:16.989Z,5934.38
2018-07-13T12:08:16.987Z,5360.63
2018-07-13T12:09:16.939Z,5034.38
2018-07-13T12:10:16.923Z,5793.75
2018-07-13T12:11:16.895Z,5377.50
2018-07-13T12:12:16.918Z,4561.88
2018-07-13T12:13:16.868Z,1355.63
2018-07-13T12:14:16.839Z,1254.38
2018-07-13T12:15:16.887Z,1226.25
2018-07-13T12:16:16.821Z,1237.50
2018-07-13T12:17:16.792Z,1243.13
2018-07-13T12:18:16.753Z,1254.38
2018-07-13T12:19:16.736Z,1276.88
2018-07-13T12:20:16.763Z,1350.00
2018-07-13T12:21:16.694Z,5281.88
2018-07-13T12:22:16.673Z,2604.38
2018-07-13T12:23:16.728Z,4725.00
2018-07-13T12:24:16.624Z,4972.50
2018-07-13T12:25:16.630Z,4899.38
2018-07-13T12:26:16.589Z,5124.38
2018-07-13T12:27:16.568Z,5321.25
2018-07-13T12:28:16.528Z,5332.50